Terminal Aerodrome Forecast
Issued by NWS Albany, NY

Home | Current Version | Previous Version | Text Only | Print | Product List | Glossary On
Versions: 1 2 3 4 5 6 7 8 9 10 11 12 13 14 15 16 17 18 19 20
217
FTUS41 KALY 011123
TAFALB
TAF
KALB 011123Z 0112/0212 01007KT P6SM BKN008 OVC028
     FM012000 03009KT P6SM -DZ SCT015 OVC025
     FM020000 07004KT 6SM -DZ BR OVC015
     FM020700 02002KT 2SM -RA BR OVC007=

USA.gov is the U.S. government's official web portal to all federal, state and local government web resources and services.